createdAt,value
2023-02-17T00:00:17.146Z,99468.55
2023-02-17T00:02:45.412Z,99464.73
2023-02-17T00:05:13.510Z,99464.16
2023-02-17T00:07:41.826Z,99462.74
2023-02-17T00:10:10.413Z,99464.45
2023-02-17T00:12:38.994Z,99463.24
2023-02-17T00:15:09.328Z,99462.68
2023-02-17T00:17:37.836Z,99461.45
2023-02-17T00:20:06.936Z,99460.74
2023-02-17T00:22:36.342Z,99456.59
2023-02-17T00:25:05.416Z,99452.24
2023-02-17T00:27:33.669Z,99448.43
2023-02-17T00:30:01.774Z,99443.75
2023-02-17T00:32:30.678Z,99438.73
2023-02-17T00:34:59.700Z,99440.48
2023-02-17T00:37:27.850Z,99440.99
2023-02-17T00:39:56.752Z,99441.00
2023-02-17T00:42:25.438Z,99442.71
2023-02-17T00:44:53.812Z,99440.77
2023-02-17T00:47:22.000Z,99440.06
2023-02-17T00:49:50.079Z,99436.77
2023-02-17T00:52:18.123Z,99432.09
2023-02-17T00:54:47.052Z,99430.86
2023-02-17T00:57:15.333Z,99430.84
2023-02-17T00:59:44.227Z,99428.59
2023-02-17T01:02:12.268Z,99427.02
2023-02-17T01:04:41.183Z,99425.61
2023-02-17T01:07:09.455Z,99425.44
2023-02-17T01:09:40.212Z,99424.58
2023-02-17T01:12:12.020Z,99417.49
2023-02-17T01:14:40.257Z,99414.55
2023-02-17T01:17:14.267Z,99416.29
2023-02-17T01:19:42.858Z,99416.14
2023-02-17T01:22:11.138Z,99414.55
2023-02-17T01:24:40.253Z,99410.05
2023-02-17T01:27:08.273Z,99407.45
2023-02-17T01:29:36.367Z,99406.75
2023-02-17T01:32:05.344Z,99404.33
2023-02-17T01:34:34.079Z,99399.14
2023-02-17T01:37:02.360Z,99401.40
2023-02-17T01:39:30.611Z,99405.92
2023-02-17T01:41:58.816Z,99405.58
2023-02-17T01:44:26.998Z,99406.29
2023-02-17T01:46:55.849Z,99406.82
2023-02-17T01:49:37.281Z,99407.88
2023-02-17T01:52:12.558Z,99404.81
2023-02-17T01:54:43.603Z,99407.93
2023-02-17T01:57:12.579Z,99406.75
2023-02-17T01:59:40.836Z,99404.17
2023-02-17T02:02:09.922Z,99400.92
2023-02-17T02:04:40.153Z,99401.95
2023-02-17T02:07:21.556Z,99405.92
2023-02-17T02:09:55.036Z,99404.35
2023-02-17T02:12:25.850Z,99404.70
2023-02-17T02:14:55.496Z,99406.56
2023-02-17T02:17:41.680Z,99406.06
2023-02-17T02:20:18.868Z,99403.79
2023-02-17T02:23:14.878Z,99402.73
2023-02-17T02:26:07.751Z,99392.89
2023-02-17T02:28:47.669Z,99391.67
2023-02-17T02:31:42.223Z,99393.20
2023-02-17T02:34:16.169Z,99390.24
2023-02-17T02:36:50.376Z,99388.51
2023-02-17T02:39:20.555Z,99388.50
2023-02-17T02:42:00.350Z,99388.66
2023-02-17T02:44:28.967Z,99387.11
2023-02-17T02:47:03.120Z,99388.14
2023-02-17T02:49:35.724Z,99390.04
2023-02-17T02:52:16.291Z,99396.09
2023-02-17T02:54:53.628Z,99398.85
2023-02-17T02:57:59.821Z,99398.34
2023-02-17T03:00:39.158Z,99399.73
2023-02-17T03:03:17.983Z,99400.63
2023-02-17T03:05:46.156Z,99402.88
2023-02-17T03:08:29.905Z,99408.94
2023-02-17T03:10:58.792Z,99408.40
2023-02-17T03:13:27.327Z,99412.73
2023-02-17T03:15:55.655Z,99413.60
2023-02-17T03:18:23.935Z,99415.34
2023-02-17T03:20:56.954Z,99414.48
2023-02-17T03:23:26.744Z,99412.95
2023-02-17T03:25:54.817Z,99413.15
2023-02-17T03:28:23.917Z,99417.50
2023-02-17T03:30:52.503Z,99416.63
2023-02-17T03:33:21.037Z,99412.15
2023-02-17T03:35:49.371Z,99413.52
2023-02-17T03:38:17.565Z,99413.20
2023-02-17T03:40:45.904Z,99414.73
2023-02-17T03:43:14.153Z,99413.36
2023-02-17T03:45:43.618Z,99414.58
2023-02-17T03:48:18.043Z,99414.92
2023-02-17T03:50:46.535Z,99413.01
2023-02-17T03:53:14.626Z,99414.92
2023-02-17T03:55:42.783Z,99418.91
2023-02-17T03:58:10.958Z,99420.66
2023-02-17T04:00:39.249Z,99421.70
2023-02-17T04:03:12.902Z,99421.52
2023-02-17T04:05:44.196Z,99418.95
2023-02-17T04:08:12.242Z,99422.77
2023-02-17T04:10:40.424Z,99419.15
2023-02-17T04:13:08.522Z,99421.75
2023-02-17T04:15:38.038Z,99420.73
2023-02-17T04:18:06.215Z,99422.98
2023-02-17T04:20:34.492Z,99424.37
2023-02-17T04:23:02.876Z,99427.48
2023-02-17T04:25:33.309Z,99421.08
2023-02-17T04:28:02.887Z,99420.21
2023-02-17T04:30:31.533Z,99422.29
2023-02-17T04:33:00.396Z,99421.77
2023-02-17T04:35:28.572Z,99421.25
2023-02-17T04:37:56.667Z,99418.66
2023-02-17T04:40:24.844Z,99413.66
2023-02-17T04:42:57.422Z,99419.69
2023-02-17T04:45:26.208Z,99424.69
2023-02-17T04:47:54.239Z,99424.02
2023-02-17T04:50:22.872Z,99425.91
2023-02-17T04:52:51.131Z,99432.65
2023-02-17T04:55:19.819Z,99431.11
2023-02-17T04:57:47.874Z,99431.45
2023-02-17T05:00:17.042Z,99433.86
2023-02-17T05:02:45.811Z,99436.98
2023-02-17T05:05:15.540Z,99439.56
2023-02-17T05:07:44.006Z,99438.02
2023-02-17T05:10:15.480Z,99438.90
2023-02-17T05:12:44.359Z,99440.96
2023-02-17T05:15:12.639Z,99445.98
2023-02-17T05:17:43.154Z,99442.17
2023-02-17T05:20:11.662Z,99438.55
2023-02-17T05:22:40.859Z,99440.80
2023-02-17T05:25:09.027Z,99443.38
2023-02-17T05:27:38.657Z,99445.45
2023-02-17T05:30:07.870Z,99449.58
2023-02-17T05:32:36.954Z,99448.71
2023-02-17T05:35:05.866Z,99454.23
2023-02-17T05:37:35.085Z,99456.11
2023-02-17T05:40:03.641Z,99462.83
2023-02-17T05:42:31.926Z,99464.40
2023-02-17T05:45:02.041Z,99471.13
2023-02-17T05:47:30.432Z,99471.33
2023-02-17T05:49:58.631Z,99478.79
2023-02-17T05:52:27.502Z,99477.62
2023-02-17T05:54:55.899Z,99480.23
2023-02-17T05:57:24.052Z,99477.66
2023-02-17T05:59:52.871Z,99476.66
2023-02-17T06:02:22.487Z,99474.98
2023-02-17T06:04:50.753Z,99482.41
2023-02-17T06:07:19.041Z,99484.70
2023-02-17T06:09:48.442Z,99486.25
2023-02-17T06:12:16.622Z,99491.95
2023-02-17T06:14:44.883Z,99495.92
2023-02-17T06:17:17.585Z,99501.27
2023-02-17T06:19:48.530Z,99503.66
2023-02-17T06:22:18.576Z,99501.41
2023-02-17T06:24:47.047Z,99505.77
2023-02-17T06:27:15.442Z,99504.92
2023-02-17T06:29:44.740Z,99510.45
2023-02-17T06:32:13.031Z,99515.27
2023-02-17T06:34:41.471Z,99517.34
2023-02-17T06:37:09.766Z,99514.90
2023-02-17T06:39:37.878Z,99519.02
2023-02-17T06:42:06.938Z,99522.63
2023-02-17T06:44:37.165Z,99527.77
2023-02-17T06:47:05.759Z,99528.80
2023-02-17T06:49:33.938Z,99529.46
2023-02-17T06:52:02.322Z,99531.20
2023-02-17T06:54:30.505Z,99528.61
2023-02-17T06:56:59.088Z,99527.90
2023-02-17T06:59:27.173Z,99527.55
2023-02-17T07:01:55.830Z,99528.93
2023-02-17T07:04:24.371Z,99529.97
2023-02-17T07:06:52.924Z,99533.05
2023-02-17T07:09:21.208Z,99538.21
2023-02-17T07:11:51.315Z,99542.34
2023-02-17T07:14:19.812Z,99545.96
2023-02-17T07:16:48.026Z,99551.48
2023-02-17T07:19:17.508Z,99550.25
2023-02-17T07:21:46.121Z,99553.70
2023-02-17T07:24:14.332Z,99553.02
2023-02-17T07:26:43.127Z,99549.21
2023-02-17T07:29:11.807Z,99551.82
2023-02-17T07:31:40.093Z,99549.77
2023-02-17T07:34:08.271Z,99552.42
2023-02-17T07:36:38.752Z,99551.91
2023-02-17T07:39:07.544Z,99549.33
2023-02-17T07:41:35.728Z,99547.23
2023-02-17T07:44:10.267Z,99550.16
2023-02-17T07:46:39.975Z,99552.56
2023-02-17T07:49:08.135Z,99550.80
2023-02-17T07:51:36.749Z,99558.91
2023-02-17T07:54:06.286Z,99562.88
2023-02-17T07:56:35.359Z,99561.83
2023-02-17T07:59:03.613Z,99568.36
2023-02-17T08:01:31.894Z,99569.54
2023-02-17T08:04:04.609Z,99573.50
2023-02-17T08:06:33.694Z,99571.04
2023-02-17T08:09:20.378Z,99569.45
2023-02-17T08:12:07.522Z,99568.73
2023-02-17T08:14:36.280Z,99569.91
2023-02-17T08:17:05.505Z,99573.35
2023-02-17T08:19:47.358Z,99575.58
2023-02-17T08:22:20.614Z,99577.30
2023-02-17T08:24:49.570Z,99579.90
2023-02-17T08:27:18.263Z,99585.92
2023-02-17T08:29:46.635Z,99585.59
2023-02-17T08:32:15.446Z,99587.98
2023-02-17T08:34:44.649Z,99587.30
2023-02-17T08:37:13.561Z,99591.09
2023-02-17T08:39:42.245Z,99593.87
2023-02-17T08:42:11.449Z,99595.61
2023-02-17T08:44:39.728Z,99593.35
2023-02-17T08:47:08.942Z,99595.05
2023-02-17T08:49:40.045Z,99596.77
2023-02-17T08:52:08.641Z,99600.20
2023-02-17T08:54:37.831Z,99599.85
2023-02-17T08:57:06.739Z,99604.48
2023-02-17T08:59:34.842Z,99604.30
2023-02-17T09:02:02.953Z,99606.41
2023-02-17T09:04:31.096Z,99607.28
2023-02-17T09:06:59.455Z,99606.05
2023-02-17T09:09:28.150Z,99604.82
2023-02-17T09:11:57.312Z,99602.91
2023-02-17T09:14:25.866Z,99608.59
2023-02-17T09:16:54.854Z,99614.42
2023-02-17T09:19:23.387Z,99617.01
2023-02-17T09:21:51.920Z,99620.61
2023-02-17T09:24:24.314Z,99619.93
2023-02-17T09:26:52.491Z,99618.06
2023-02-17T09:29:20.616Z,99614.77
2023-02-17T09:31:48.916Z,99615.48
2023-02-17T09:34:17.345Z,99614.42
2023-02-17T09:36:46.330Z,99613.73
2023-02-17T09:39:15.139Z,99613.73
2023-02-17T09:41:50.106Z,99612.33
2023-02-17T09:44:32.738Z,99611.81
2023-02-17T09:47:10.971Z,99613.69
2023-02-17T09:49:42.436Z,99619.19
2023-02-17T09:52:32.689Z,99619.18
2023-02-17T09:55:05.564Z,99618.70
2023-02-17T09:57:40.409Z,99615.92
2023-02-17T10:00:22.244Z,99612.67
2023-02-17T10:03:04.913Z,99616.21
2023-02-17T10:05:37.075Z,99616.91
2023-02-17T10:08:11.876Z,99616.55
2023-02-17T10:10:57.100Z,99616.38
2023-02-17T10:13:31.296Z,99615.27
2023-02-17T10:16:02.273Z,99614.27
2023-02-17T10:19:05.746Z,99616.12
2023-02-17T10:21:38.742Z,99611.73
2023-02-17T10:24:07.486Z,99609.23
2023-02-17T10:27:23.057Z,99613.15
2023-02-17T10:30:22.460Z,99611.88
2023-02-17T10:32:59.208Z,99609.57
2023-02-17T10:35:39.195Z,99611.95
2023-02-17T10:38:18.647Z,99609.48
2023-02-17T10:40:47.763Z,99608.27
2023-02-17T10:43:21.987Z,99610.02
2023-02-17T10:45:51.519Z,99609.34
2023-02-17T10:48:39.017Z,99612.70
2023-02-17T10:51:07.431Z,99609.30
2023-02-17T10:53:38.463Z,99613.73
2023-02-17T10:56:18.395Z,99611.23
2023-02-17T10:58:46.513Z,99617.14
2023-02-17T11:01:14.656Z,99615.04
2023-02-17T11:03:42.888Z,99614.16
2023-02-17T11:06:21.624Z,99613.20
2023-02-17T11:08:51.200Z,99609.70
2023-02-17T11:11:25.566Z,99611.56
2023-02-17T11:13:57.985Z,99611.67
2023-02-17T11:16:28.460Z,99613.61
2023-02-17T11:18:58.633Z,99614.48
2023-02-17T11:21:28.756Z,99616.06
2023-02-17T11:24:00.297Z,99612.59
2023-02-17T11:26:30.694Z,99615.00
2023-02-17T11:29:09.665Z,99614.98
2023-02-17T11:31:38.147Z,99615.97
2023-02-17T11:34:16.161Z,99616.45
2023-02-17T11:36:45.575Z,99615.45
2023-02-17T11:39:20.785Z,99612.16
2023-02-17T11:41:49.516Z,99608.73
2023-02-17T11:44:25.400Z,99608.45
2023-02-17T11:47:05.768Z,99606.60
2023-02-17T11:49:56.093Z,99612.19
2023-02-17T11:52:40.963Z,99608.40
2023-02-17T11:55:16.199Z,99603.15
2023-02-17T11:57:51.209Z,99601.37
2023-02-17T12:00:23.282Z,99601.38
2023-02-17T12:03:04.109Z,99596.89
2023-02-17T12:05:41.752Z,99601.70
2023-02-17T12:08:48.514Z,99601.15
2023-02-17T12:11:38.902Z,99603.90
2023-02-17T12:14:44.260Z,99606.28
2023-02-17T12:17:20.409Z,99607.79
2023-02-17T12:20:02.446Z,99604.80
2023-02-17T12:22:43.677Z,99600.81
2023-02-17T12:25:21.447Z,99599.40
2023-02-17T12:28:24.327Z,99597.73
2023-02-17T12:31:05.182Z,99603.66
2023-02-17T12:33:44.609Z,99604.13
2023-02-17T12:36:14.903Z,99604.81
2023-02-17T12:38:44.362Z,99604.35
2023-02-17T12:41:26.995Z,99602.17
2023-02-17T12:43:58.278Z,99602.58
2023-02-17T12:46:44.202Z,99603.02
2023-02-17T12:49:34.207Z,99607.70
2023-02-17T12:52:11.204Z,99602.84
2023-02-17T12:54:53.423Z,99597.15
2023-02-17T12:57:37.629Z,99598.85
2023-02-17T13:00:18.322Z,99598.32
2023-02-17T13:02:46.749Z,99599.00
2023-02-17T13:05:22.344Z,99599.50
2023-02-17T13:07:55.802Z,99593.97
2023-02-17T13:10:26.743Z,99593.98
2023-02-17T13:13:03.386Z,99589.84
2023-02-17T13:15:37.236Z,99593.13
2023-02-17T13:18:12.092Z,99592.80
2023-02-17T13:20:40.875Z,99594.55
2023-02-17T13:23:12.152Z,99597.39
2023-02-17T13:25:40.542Z,99599.52
2023-02-17T13:28:38.615Z,99597.48
2023-02-17T13:31:16.436Z,99597.52
2023-02-17T13:33:47.294Z,99593.63
2023-02-17T13:36:22.840Z,99594.73
2023-02-17T13:39:01.328Z,99593.02
2023-02-17T13:41:33.618Z,99589.77
2023-02-17T13:44:17.552Z,99590.67
2023-02-17T13:46:45.742Z,99590.52
2023-02-17T13:49:21.408Z,99592.06
2023-02-17T13:51:49.524Z,99593.27
2023-02-17T13:54:21.154Z,99591.72
2023-02-17T13:56:52.955Z,99592.76
2023-02-17T13:59:25.600Z,99592.42
2023-02-17T14:01:56.567Z,99589.85
2023-02-17T14:04:30.744Z,99591.56
2023-02-17T14:06:59.572Z,99598.64
2023-02-17T14:09:31.983Z,99595.19
2023-02-17T14:12:02.424Z,99595.67
2023-02-17T14:14:33.264Z,99597.77
2023-02-17T14:17:03.998Z,99598.31
2023-02-17T14:19:45.616Z,99598.14
2023-02-17T14:22:34.636Z,99601.77
2023-02-17T14:25:08.462Z,99604.37
2023-02-17T14:27:46.854Z,99604.21
2023-02-17T14:30:38.531Z,99603.16
2023-02-17T14:33:16.568Z,99602.66
2023-02-17T14:35:57.837Z,99603.00
2023-02-17T14:38:37.686Z,99600.92
2023-02-17T14:41:11.936Z,99596.60
2023-02-17T14:43:40.390Z,99597.48
2023-02-17T14:46:08.893Z,99600.92
2023-02-17T14:48:37.572Z,99605.23
2023-02-17T14:51:12.548Z,99604.20
2023-02-17T14:53:40.810Z,99604.54
2023-02-17T14:56:20.270Z,99605.58
2023-02-17T14:58:49.986Z,99608.70
2023-02-17T15:01:18.836Z,99612.66
2023-02-17T15:03:47.121Z,99614.05
2023-02-17T15:06:16.732Z,99611.13
2023-02-17T15:08:46.175Z,99611.80
2023-02-17T15:11:35.622Z,99604.75
2023-02-17T15:14:06.161Z,99611.30
2023-02-17T15:16:34.563Z,99609.39
2023-02-17T15:19:02.898Z,99607.66
2023-02-17T15:21:33.010Z,99605.44
2023-02-17T15:24:26.465Z,99609.05
2023-02-17T15:26:57.317Z,99611.63
2023-02-17T15:29:27.487Z,99609.40
2023-02-17T15:31:56.810Z,99611.30
2023-02-17T15:34:31.779Z,99612.85
2023-02-17T15:37:00.234Z,99610.78
2023-02-17T15:39:29.061Z,99615.25
2023-02-17T15:41:57.236Z,99613.87
2023-02-17T15:44:27.436Z,99611.98
2023-02-17T15:46:56.092Z,99610.25
2023-02-17T15:49:24.332Z,99606.45
2023-02-17T15:51:52.404Z,99603.50
2023-02-17T15:54:20.659Z,99602.98
2023-02-17T15:56:49.977Z,99606.23
2023-02-17T15:59:20.378Z,99604.67
2023-02-17T16:01:49.129Z,99600.52
2023-02-17T16:04:17.475Z,99602.56
2023-02-17T16:06:45.812Z,99593.08
2023-02-17T16:09:14.024Z,99597.52
2023-02-17T16:11:53.108Z,99597.02
2023-02-17T16:14:25.573Z,99594.42
2023-02-17T16:16:53.642Z,99590.64
2023-02-17T16:19:22.429Z,99590.96
2023-02-17T16:21:50.716Z,99585.96
2023-02-17T16:24:18.842Z,99585.95
2023-02-17T16:26:53.111Z,99588.86
2023-02-17T16:29:21.421Z,99585.25
2023-02-17T16:31:49.753Z,99588.17
2023-02-17T16:34:22.978Z,99586.27
2023-02-17T16:36:53.094Z,99585.39
2023-02-17T16:39:22.379Z,99590.03
2023-02-17T16:41:51.292Z,99592.59
2023-02-17T16:44:21.009Z,99595.67
2023-02-17T16:49:45.510Z,99594.59
2023-02-17T16:52:22.792Z,99595.74
2023-02-17T16:54:51.176Z,99598.30
2023-02-17T16:57:19.780Z,99594.50
2023-02-17T16:59:48.320Z,99592.95
2023-02-17T17:02:17.440Z,99590.02
2023-02-17T17:04:48.054Z,99590.38
2023-02-17T17:07:16.492Z,99590.00
2023-02-17T17:10:06.989Z,99583.62
2023-02-17T17:12:36.180Z,99583.43
2023-02-17T17:15:06.288Z,99582.40
2023-02-17T17:17:58.813Z,99581.86
2023-02-17T17:20:31.597Z,99582.37
2023-02-17T17:23:12.365Z,99576.88
2023-02-17T17:25:42.156Z,99575.33
2023-02-17T17:28:13.908Z,99566.92
2023-02-17T17:30:42.036Z,99564.50
2023-02-17T17:33:10.628Z,99555.55
2023-02-17T17:35:39.503Z,99551.61
2023-02-17T17:38:08.004Z,99548.34
2023-02-17T17:40:48.526Z,99542.27
2023-02-17T17:43:20.329Z,99540.21
2023-02-17T17:45:49.352Z,99540.54
2023-02-17T17:48:18.092Z,99540.19
2023-02-17T17:50:49.202Z,99537.27
2023-02-17T17:53:18.805Z,99529.70
2023-02-17T17:55:47.794Z,99523.50
2023-02-17T17:58:17.423Z,99523.99
2023-02-17T18:00:50.576Z,99524.51
2023-02-17T18:03:20.388Z,99523.45
2023-02-17T18:05:48.549Z,99517.77
2023-02-17T18:08:16.903Z,99512.95
2023-02-17T18:10:45.125Z,99512.42
2023-02-17T18:13:16.777Z,99510.52
2023-02-17T18:15:45.472Z,99505.19
2023-02-17T18:18:13.665Z,99503.96
2023-02-17T18:20:41.835Z,99503.45
2023-02-17T18:23:12.779Z,99492.30
2023-02-17T18:25:41.038Z,99490.41
2023-02-17T18:28:09.523Z,99488.88
2023-02-17T18:30:40.783Z,99482.55
2023-02-17T18:33:14.714Z,99483.75
2023-02-17T18:35:45.744Z,99477.04
2023-02-17T18:38:13.811Z,99472.05
2023-02-17T18:40:41.865Z,99461.20
2023-02-17T18:43:10.210Z,99451.41
2023-02-17T18:45:38.648Z,99451.60
2023-02-17T18:48:06.925Z,99446.64
2023-02-17T18:50:35.748Z,99451.11
2023-02-17T18:53:05.482Z,99449.40
2023-02-17T18:55:37.206Z,99447.01
2023-02-17T18:58:05.626Z,99430.16
2023-02-17T19:00:33.767Z,99427.91
2023-02-17T19:03:04.703Z,99430.84
2023-02-17T19:05:33.191Z,99424.31
2023-02-17T19:08:01.369Z,99420.70
2023-02-17T19:10:30.159Z,99419.48
2023-02-17T19:12:58.270Z,99417.23
2023-02-17T19:15:26.835Z,99419.30
2023-02-17T19:17:57.071Z,99416.73
2023-02-17T19:20:28.775Z,99415.54
2023-02-17T19:22:58.219Z,99413.15
2023-02-17T19:25:26.622Z,99409.56
2023-02-17T19:27:54.759Z,99401.66
2023-02-17T19:30:23.093Z,99395.30
2023-02-17T19:32:52.950Z,99391.70
2023-02-17T19:35:21.574Z,99389.29
2023-02-17T19:37:49.747Z,99388.77
2023-02-17T19:40:18.158Z,99391.00
2023-02-17T19:42:49.061Z,99394.96
2023-02-17T19:45:17.361Z,99398.76
2023-02-17T19:47:46.472Z,99400.66
2023-02-17T19:50:17.201Z,99396.88
2023-02-17T19:52:45.895Z,99390.16
2023-02-17T19:55:14.575Z,99383.96
2023-02-17T19:57:42.804Z,99378.12
2023-02-17T20:00:11.980Z,99371.42
2023-02-17T20:02:40.251Z,99364.02
2023-02-17T20:05:08.955Z,99358.17
2023-02-17T20:07:37.234Z,99352.16
2023-02-17T20:10:12.225Z,99349.23
2023-02-17T20:12:40.602Z,99345.63
2023-02-17T20:15:09.024Z,99346.65
2023-02-17T20:17:37.499Z,99339.44
2023-02-17T20:20:09.618Z,99336.17
2023-02-17T20:22:38.564Z,99331.88
2023-02-17T20:25:07.667Z,99322.92
2023-02-17T20:27:36.864Z,99312.28
2023-02-17T20:30:06.555Z,99312.80
2023-02-17T20:32:36.306Z,99314.00
2023-02-17T20:35:05.174Z,99311.42
2023-02-17T20:37:33.378Z,99306.78
2023-02-17T20:40:03.991Z,99300.92
2023-02-17T20:42:32.592Z,99290.94
2023-02-17T20:45:01.582Z,99285.79
2023-02-17T20:47:30.284Z,99282.70
2023-02-17T20:49:59.042Z,99276.85
2023-02-17T20:52:27.321Z,99266.71
2023-02-17T20:54:55.408Z,99261.39
2023-02-17T20:57:23.717Z,99259.68
2023-02-17T20:59:52.202Z,99254.34
2023-02-17T21:02:21.824Z,99246.45
2023-02-17T21:04:50.390Z,99241.63
2023-02-17T21:07:18.888Z,99230.29
2023-02-17T21:09:54.450Z,99227.02
2023-02-17T21:12:22.704Z,99226.85
2023-02-17T21:14:50.898Z,99222.05
2023-02-17T21:17:19.384Z,99219.12
2023-02-17T21:19:47.767Z,99210.70
2023-02-17T21:22:15.832Z,99203.47
2023-02-17T21:24:44.087Z,99201.08
2023-02-17T21:27:12.424Z,99197.11
2023-02-17T21:29:40.964Z,99184.56
2023-02-17T21:32:09.222Z,99177.18
2023-02-17T21:34:38.719Z,99171.67
2023-02-17T21:37:10.547Z,99163.95
2023-02-17T21:39:40.272Z,99158.61
2023-02-17T21:42:08.634Z,99153.45
2023-02-17T21:44:52.988Z,99142.80
2023-02-17T21:47:21.503Z,99133.66
2023-02-17T21:49:53.434Z,99135.58
2023-02-17T21:52:22.124Z,99134.88
2023-02-17T21:54:51.856Z,99131.61
2023-02-17T21:57:20.465Z,99122.32
2023-02-17T21:59:53.795Z,99125.05
2023-02-17T22:02:22.620Z,99119.55
2023-02-17T22:04:55.426Z,99116.27
2023-02-17T22:07:23.989Z,99103.04
2023-02-17T22:09:52.165Z,99099.95
2023-02-17T22:12:20.348Z,99098.74
2023-02-17T22:14:48.525Z,99090.83
2023-02-17T22:17:20.898Z,99089.96
2023-02-17T22:19:49.081Z,99085.65
2023-02-17T22:22:17.153Z,99081.69
2023-02-17T22:24:45.330Z,99076.35
2023-02-17T22:27:13.713Z,99072.22
2023-02-17T22:29:41.891Z,99067.91
2023-02-17T22:32:10.616Z,99060.67
2023-02-17T22:34:38.767Z,99056.02
2023-02-17T22:37:07.789Z,99051.56
2023-02-17T22:39:36.868Z,99051.04
2023-02-17T22:42:06.985Z,99043.32
2023-02-17T22:44:35.362Z,99042.63
2023-02-17T22:47:03.762Z,99036.61
2023-02-17T22:49:32.069Z,99033.14
2023-02-17T22:52:00.426Z,99024.71
2023-02-17T22:54:30.469Z,99022.29
2023-02-17T22:56:58.763Z,99014.20
2023-02-17T22:59:27.002Z,99012.15
2023-02-17T23:02:00.195Z,99014.21
2023-02-17T23:04:29.125Z,99018.00
2023-02-17T23:06:59.315Z,99006.81
2023-02-17T23:09:27.612Z,99003.38
2023-02-17T23:11:58.470Z,98999.08
2023-02-17T23:14:38.591Z,98992.02
2023-02-17T23:17:09.459Z,98987.21
2023-02-17T23:19:38.121Z,98981.01
2023-02-17T23:22:11.546Z,98982.04
2023-02-17T23:24:39.702Z,98979.29
2023-02-17T23:27:08.489Z,98980.48
2023-02-17T23:29:38.212Z,98978.78
2023-02-17T23:32:07.405Z,98984.61
2023-02-17T23:34:35.588Z,98987.38
2023-02-17T23:37:04.857Z,98986.85
2023-02-17T23:39:36.959Z,98982.90
2023-02-17T23:42:08.311Z,98977.92
2023-02-17T23:44:38.433Z,98977.41
2023-02-17T23:47:06.579Z,98971.23
2023-02-17T23:49:35.053Z,98973.66
2023-02-17T23:52:03.588Z,98962.64
2023-02-17T23:54:34.114Z,98954.77
2023-02-17T23:57:02.403Z,98954.05
2023-02-17T23:59:31.081Z,98954.38
